Time;durP1;ratioP1;P1;durP2;ratioP2;P2;SDS_P1;SDS_P2;PMS_P1;PMS_P2;Temp;Humidity;BMP_temperature;BMP_pressure;BME280_temperature;BME280_humidity;BME280_pressure;Samples;Min_cycle;Max_cycle;Signal;HPM_P1;HPM_P2
2024/01/20 00:01:26;;;;;;;0.10;0.10;;;;;;;;;;5090645;28;20020;-73
2024/01/20 00:03:52;;;;;;;0.10;0.10;;;;;;;;;;5091017;28;20099;-72
2024/01/20 00:06:18;;;;;;;0.10;0.10;;;;;;;;;;5090308;28;20059;-72
2024/01/20 00:08:45;;;;;;;0.20;0.20;;;;;;;;;;5090684;28;20035;-74
2024/01/20 00:11:11;;;;;;;0.20;0.20;;;;;;;;;;5072659;28;20157;-73
2024/01/20 00:13:37;;;;;;;0.10;0.10;;;;;;;;;;5072120;28;20024;-74
2024/01/20 00:16:03;;;;;;;0.13;0.13;;;;;;;;;;5090322;28;20031;-75
2024/01/20 00:18:30;;;;;;;0.10;0.10;;;;;;;;;;5072613;28;20437;-74
2024/01/20 00:20:56;;;;;;;0.20;0.20;;;;;;;;;;5090095;28;20059;-73
2024/01/20 00:23:22;;;;;;;0.10;0.10;;;;;;;;;;5090059;28;20506;-74
2024/01/20 00:25:48;;;;;;;0.10;0.10;;;;;;;;;;5089908;28;20050;-71
2024/01/20 00:28:13;;;;;;;0.10;0.10;;;;;;;;;;5089616;28;20032;-73
2024/01/20 00:30:39;;;;;;;0.20;0.20;;;;;;;;;;5089456;28;20488;-73
2024/01/20 00:33:08;;;;;;;2.38;2.17;;;;;;;;;;5089970;28;20016;-74
2024/01/20 00:35:34;;;;;;;0.10;0.10;;;;;;;;;;5089841;28;20044;-73
2024/01/20 00:38:00;;;;;;;0.20;0.20;;;;;;;;;;5089826;28;20379;-73
2024/01/20 00:40:25;;;;;;;0.15;0.15;;;;;;;;;;5089593;28;20043;-74
2024/01/20 00:42:51;;;;;;;0.10;0.10;;;;;;;;;;5089732;28;20092;-74
2024/01/20 00:45:17;;;;;;;0.10;0.10;;;;;;;;;;5071888;28;20032;-72
2024/01/20 00:47:43;;;;;;;0.10;0.10;;;;;;;;;;5089762;28;20117;-73
2024/01/20 00:50:09;;;;;;;0.10;0.10;;;;;;;;;;5054867;28;20390;-71
2024/01/20 00:52:34;;;;;;;0.15;0.15;;;;;;;;;;5089890;28;20118;-76
2024/01/20 00:55:00;;;;;;;0.80;0.80;;;;;;;;;;5089708;28;20471;-74
2024/01/20 00:57:25;;;;;;;0.20;0.20;;;;;;;;;;5089975;28;20044;-74
2024/01/20 00:59:51;;;;;;;0.73;0.73;;;;;;;;;;5089723;28;20432;-73
2024/01/20 01:02:18;;;;;;;0.10;0.10;;;;;;;;;;5089712;28;20089;-74
2024/01/20 01:04:44;;;;;;;0.10;0.10;;;;;;;;;;5071363;28;20032;-73
2024/01/20 01:07:10;;;;;;;0.10;0.10;;;;;;;;;;5089373;28;20035;-73
2024/01/20 01:09:36;;;;;;;0.20;0.20;;;;;;;;;;5089500;28;20039;-74
2024/01/20 01:12:01;;;;;;;0.20;0.20;;;;;;;;;;5089819;28;20025;-72
2024/01/20 01:14:27;;;;;;;0.10;0.10;;;;;;;;;;5071516;28;20487;-75
2024/01/20 01:16:53;;;;;;;0.10;0.10;;;;;;;;;;5089275;28;20032;-73
2024/01/20 01:19:18;;;;;;;0.10;0.10;;;;;;;;;;5089592;28;20024;-73
2024/01/20 01:21:44;;;;;;;0.10;0.10;;;;;;;;;;5089538;28;20106;-77
2024/01/20 01:24:09;;;;;;;0.20;0.20;;;;;;;;;;5089444;28;20471;-74
2024/01/20 01:26:35;;;;;;;0.10;0.10;;;;;;;;;;5089293;28;20058;-77
2024/01/20 01:29:01;;;;;;;0.10;0.10;;;;;;;;;;5090038;28;20058;-75
2024/01/20 01:31:26;;;;;;;0.10;0.10;;;;;;;;;;5089407;28;20029;-75
2024/01/20 01:33:52;;;;;;;0.50;0.50;;;;;;;;;;5089650;28;20092;-74
2024/01/20 01:36:17;;;;;;;0.20;0.20;;;;;;;;;;5089033;28;20036;-75
2024/01/20 01:38:43;;;;;;;0.10;0.10;;;;;;;;;;5089625;28;20051;-73
2024/01/20 01:41:09;;;;;;;0.10;0.10;;;;;;;;;;5092128;28;20076;-74
2024/01/20 01:43:35;;;;;;;0.10;0.10;;;;;;;;;;5093160;28;20480;-73
2024/01/20 01:46:00;;;;;;;0.10;0.10;;;;;;;;;;5093074;28;20031;-74
2024/01/20 01:48:26;;;;;;;0.17;0.17;;;;;;;;;;5093050;28;20043;-73
2024/01/20 01:50:53;;;;;;;0.10;0.10;;;;;;;;;;5093086;28;20020;-72
2024/01/20 01:53:19;;;;;;;0.10;0.10;;;;;;;;;;5092925;28;20027;-73
2024/01/20 01:55:46;;;;;;;0.10;0.10;;;;;;;;;;5074964;28;20020;-73
2024/01/20 01:58:11;;;;;;;0.10;0.10;;;;;;;;;;5092625;28;20057;-78
2024/01/20 02:00:37;;;;;;;0.10;0.10;;;;;;;;;;5092939;28;20028;-75
2024/01/20 02:03:03;;;;;;;0.10;0.10;;;;;;;;;;5095768;28;20039;-73
2024/01/20 02:05:29;;;;;;;0.63;0.63;;;;;;;;;;5096663;28;20089;-73
2024/01/20 02:07:56;;;;;;;0.20;0.20;;;;;;;;;;5096239;28;20028;-74
2024/01/20 02:10:21;;;;;;;0.20;0.20;;;;;;;;;;5096481;28;20042;-73
2024/01/20 02:12:47;;;;;;;0.10;0.10;;;;;;;;;;5096075;28;20024;-74
2024/01/20 02:15:13;;;;;;;0.10;0.10;;;;;;;;;;5094245;28;20073;-74
2024/01/20 02:17:52;;;;;;;0.10;0.10;;;;;;;;;;5094139;28;20024;-75
2024/01/20 02:20:17;;;;;;;0.10;0.10;;;;;;;;;;5075847;28;20386;-74
2024/01/20 02:22:43;;;;;;;0.10;0.10;;;;;;;;;;5094061;28;20020;-73
2024/01/20 02:25:08;;;;;;;0.10;0.10;;;;;;;;;;5076048;28;20383;-73
2024/01/20 02:27:34;;;;;;;0.10;0.10;;;;;;;;;;5093985;28;20035;-74
2024/01/20 02:29:59;;;;;;;0.10;0.10;;;;;;;;;;5095617;28;20024;-73
2024/01/20 02:32:25;;;;;;;0.10;0.10;;;;;;;;;;5095984;28;20170;-73
2024/01/20 02:34:50;;;;;;;1.95;1.63;;;;;;;;;;5095558;28;20422;-73
2024/01/20 02:37:16;;;;;;;0.20;0.20;;;;;;;;;;5096042;28;20032;-73
2024/01/20 02:39:41;;;;;;;0.73;0.73;;;;;;;;;;5095707;28;20028;-73
2024/01/20 02:42:08;;;;;;;0.10;0.10;;;;;;;;;;5095894;28;20387;-73
2024/01/20 02:44:34;;;;;;;0.30;0.30;;;;;;;;;;5095845;28;20021;-73
2024/01/20 02:47:00;;;;;;;0.10;0.10;;;;;;;;;;5095415;28;20122;-72
2024/01/20 02:49:26;;;;;;;0.10;0.10;;;;;;;;;;5077387;28;20154;-73
2024/01/20 02:51:51;;;;;;;0.10;0.10;;;;;;;;;;5095136;28;20036;-75
2024/01/20 02:54:17;;;;;;;0.10;0.10;;;;;;;;;;5095535;28;20028;-74
2024/01/20 02:56:43;;;;;;;0.10;0.10;;;;;;;;;;5095451;28;20036;-73
2024/01/20 02:59:08;;;;;;;0.10;0.10;;;;;;;;;;5095756;28;20109;-72
2024/01/20 03:01:34;;;;;;;0.10;0.10;;;;;;;;;;5095320;28;20043;-72
2024/01/20 03:03:59;;;;;;;0.10;0.10;;;;;;;;;;5095174;28;20094;-72
2024/01/20 03:06:25;;;;;;;0.05;0.05;;;;;;;;;;5095415;28;20475;-72
2024/01/20 03:08:50;;;;;;;0.10;0.10;;;;;;;;;;5095402;28;20024;-73
2024/01/20 03:11:16;;;;;;;0.10;0.10;;;;;;;;;;5095722;28;20032;-72
2024/01/20 03:13:42;;;;;;;0.10;0.10;;;;;;;;;;5095073;28;20049;-72
2024/01/20 03:16:08;;;;;;;0.10;0.10;;;;;;;;;;5095103;28;20048;-74
2024/01/20 03:18:34;;;;;;;0.20;0.20;;;;;;;;;;5094936;28;20099;-72
2024/01/20 03:20:59;;;;;;;0.10;0.10;;;;;;;;;;5095445;28;20543;-73
2024/01/20 03:23:25;;;;;;;0.10;0.10;;;;;;;;;;5095166;28;20020;-71
2024/01/20 03:25:50;;;;;;;0.10;0.10;;;;;;;;;;5094910;28;20017;-73
2024/01/20 03:28:16;;;;;;;0.10;0.10;;;;;;;;;;5094802;28;20545;-73
2024/01/20 03:30:42;;;;;;;0.10;0.10;;;;;;;;;;5076694;28;20036;-74
2024/01/20 03:33:08;;;;;;;0.10;0.10;;;;;;;;;;5076497;28;20020;-73
2024/01/20 03:35:33;;;;;;;0.20;0.20;;;;;;;;;;5094509;28;20039;-73
2024/01/20 03:37:58;;;;;;;0.10;0.10;;;;;;;;;;5094644;28;20028;-74
2024/01/20 03:40:24;;;;;;;0.20;0.20;;;;;;;;;;5094573;28;20035;-73
2024/01/20 03:42:50;;;;;;;0.10;0.10;;;;;;;;;;5094539;28;20024;-73
2024/01/20 03:45:15;;;;;;;0.93;0.52;;;;;;;;;;5094612;28;20020;-73
2024/01/20 03:47:41;;;;;;;0.10;0.10;;;;;;;;;;5094323;28;20067;-73
2024/01/20 03:50:09;;;;;;;0.10;0.10;;;;;;;;;;5094394;28;20155;-73
2024/01/20 03:52:34;;;;;;;0.10;0.10;;;;;;;;;;5094235;28;20024;-74
2024/01/20 03:55:00;;;;;;;0.80;0.30;;;;;;;;;;5094272;28;20046;-74
2024/01/20 03:57:25;;;;;;;0.20;0.20;;;;;;;;;;5094492;28;20566;-74
2024/01/20 03:59:51;;;;;;;0.10;0.10;;;;;;;;;;5094278;28;20059;-73
2024/01/20 04:02:16;;;;;;;0.20;0.20;;;;;;;;;;5089286;28;20115;-75
2024/01/20 04:04:42;;;;;;;0.10;0.10;;;;;;;;;;5069540;28;20035;-77
2024/01/20 04:07:08;;;;;;;0.10;0.10;;;;;;;;;;5070093;28;20521;-74
2024/01/20 04:09:33;;;;;;;0.20;0.20;;;;;;;;;;5070122;28;20036;-73
2024/01/20 04:11:59;;;;;;;0.20;0.20;;;;;;;;;;5069892;28;20029;-75
2024/01/20 04:14:24;;;;;;;0.10;0.10;;;;;;;;;;5069687;28;20037;-74
2024/01/20 04:16:50;;;;;;;0.47;0.47;;;;;;;;;;5069840;28;20037;-74
2024/01/20 04:19:16;;;;;;;0.22;0.22;;;;;;;;;;5069934;28;20024;-74
2024/01/20 04:21:43;;;;;;;0.22;0.22;;;;;;;;;;5052156;28;20031;-76
2024/01/20 04:24:08;;;;;;;0.10;0.10;;;;;;;;;;5069461;28;20035;-75
2024/01/20 04:26:34;;;;;;;0.20;0.20;;;;;;;;;;5052252;28;20387;-75
2024/01/20 04:29:00;;;;;;;0.88;0.30;;;;;;;;;;5069584;28;20526;-74
2024/01/20 04:31:25;;;;;;;0.10;0.10;;;;;;;;;;5069452;28;20419;-74
2024/01/20 04:33:53;;;;;;;0.10;0.10;;;;;;;;;;5069534;28;20113;-74
2024/01/20 04:36:19;;;;;;;0.35;0.35;;;;;;;;;;5069232;28;20041;-73
2024/01/20 04:38:44;;;;;;;0.10;0.10;;;;;;;;;;5069395;28;20024;-76
2024/01/20 04:41:10;;;;;;;0.20;0.20;;;;;;;;;;5070063;28;20036;-75
2024/01/20 04:43:35;;;;;;;0.10;0.10;;;;;;;;;;5069553;28;20376;-74
2024/01/20 04:46:01;;;;;;;0.10;0.10;;;;;;;;;;5069346;28;20028;-75
2024/01/20 04:48:27;;;;;;;0.10;0.10;;;;;;;;;;5069371;28;20074;-73
2024/01/20 04:50:52;;;;;;;0.10;0.10;;;;;;;;;;5076698;28;20032;-72
2024/01/20 04:53:18;;;;;;;0.10;0.10;;;;;;;;;;5088714;28;20020;-73
2024/01/20 04:55:43;;;;;;;0.10;0.10;;;;;;;;;;5089488;28;20016;-72
2024/01/20 04:58:09;;;;;;;0.20;0.20;;;;;;;;;;5089534;28;20077;-73
2024/01/20 05:00:35;;;;;;;0.10;0.10;;;;;;;;;;5089980;28;20039;-76
2024/01/20 05:03:00;;;;;;;0.10;0.10;;;;;;;;;;5089581;28;20086;-72
2024/01/20 05:05:26;;;;;;;0.10;0.10;;;;;;;;;;5089859;28;20372;-72
2024/01/20 05:07:52;;;;;;;0.10;0.10;;;;;;;;;;5089471;28;20043;-72
2024/01/20 05:10:17;;;;;;;0.10;0.10;;;;;;;;;;5089250;28;20425;-72
2024/01/20 05:12:42;;;;;;;5.68;1.23;;;;;;;;;;5071963;28;20037;-72
2024/01/20 05:15:11;;;;;;;0.10;0.10;;;;;;;;;;5089992;28;20036;-72
2024/01/20 05:17:37;;;;;;;0.10;0.10;;;;;;;;;;5091977;28;20028;-72
2024/01/20 05:20:03;;;;;;;0.10;0.10;;;;;;;;;;5091278;28;20020;-75
2024/01/20 05:22:29;;;;;;;0.20;0.20;;;;;;;;;;5090736;28;20036;-76
2024/01/20 05:24:54;;;;;;;0.10;0.10;;;;;;;;;;5072156;28;20533;-74
2024/01/20 05:27:20;;;;;;;0.10;0.10;;;;;;;;;;5089912;28;20046;-73
2024/01/20 05:29:45;;;;;;;0.20;0.20;;;;;;;;;;5089713;28;20025;-72
2024/01/20 05:32:11;;;;;;;0.17;0.17;;;;;;;;;;5090703;28;20387;-73
2024/01/20 05:34:36;;;;;;;0.52;0.52;;;;;;;;;;5073150;28;20119;-73
2024/01/20 05:37:02;;;;;;;0.10;0.10;;;;;;;;;;5074429;28;20036;-73
2024/01/20 05:39:27;;;;;;;0.10;0.10;;;;;;;;;;5093035;28;20036;-73
2024/01/20 05:41:53;;;;;;;0.10;0.10;;;;;;;;;;5093590;28;20032;-74
2024/01/20 05:44:19;;;;;;;0.10;0.10;;;;;;;;;;5092731;28;20035;-75
2024/01/20 05:46:44;;;;;;;0.30;0.30;;;;;;;;;;5093155;28;20820;-73
2024/01/20 05:49:10;;;;;;;0.10;0.10;;;;;;;;;;5093148;28;20111;-72
2024/01/20 05:51:36;;;;;;;0.15;0.15;;;;;;;;;;5093092;28;20023;-74
2024/01/20 05:54:01;;;;;;;0.10;0.10;;;;;;;;;;5092807;28;20032;-73
2024/01/20 05:56:27;;;;;;;0.10;0.10;;;;;;;;;;5092547;28;20026;-74
2024/01/20 05:58:52;;;;;;;0.15;0.15;;;;;;;;;;5092996;28;20099;-73
2024/01/20 06:01:19;;;;;;;0.15;0.15;;;;;;;;;;5090758;28;20023;-74
2024/01/20 06:03:44;;;;;;;0.30;0.20;;;;;;;;;;5092682;28;20032;-74
2024/01/20 06:06:10;;;;;;;0.10;0.10;;;;;;;;;;5092885;28;20030;-74
2024/01/20 06:08:35;;;;;;;0.10;0.10;;;;;;;;;;5092685;28;20122;-74
2024/01/20 06:11:01;;;;;;;0.10;0.10;;;;;;;;;;5091118;28;20024;-74
2024/01/20 06:13:26;;;;;;;0.10;0.10;;;;;;;;;;5092428;28;20064;-74
2024/01/20 06:15:52;;;;;;;0.10;0.10;;;;;;;;;;5092334;28;20028;-74
2024/01/20 06:18:17;;;;;;;0.10;0.10;;;;;;;;;;5091902;28;20024;-75
2024/01/20 06:20:44;;;;;;;0.10;0.10;;;;;;;;;;5090718;28;20024;-76
2024/01/20 06:23:09;;;;;;;0.10;0.10;;;;;;;;;;5092080;28;20031;-74
2024/01/20 06:25:35;;;;;;;0.20;0.20;;;;;;;;;;5091994;28;20436;-74
2024/01/20 06:28:00;;;;;;;0.17;0.17;;;;;;;;;;5090789;28;20460;-73
2024/01/20 06:30:26;;;;;;;0.10;0.10;;;;;;;;;;5091354;28;20028;-75
2024/01/20 06:32:51;;;;;;;0.10;0.10;;;;;;;;;;5091789;28;20027;-74
2024/01/20 06:35:17;;;;;;;0.20;0.20;;;;;;;;;;5084513;28;20097;-74
2024/01/20 06:37:43;;;;;;;0.20;0.20;;;;;;;;;;5091902;28;20032;-74
2024/01/20 06:40:08;;;;;;;0.10;0.10;;;;;;;;;;5072977;28;20020;-72
2024/01/20 06:42:34;;;;;;;0.10;0.10;;;;;;;;;;5082778;28;20184;-75
2024/01/20 06:44:59;;;;;;;0.10;0.10;;;;;;;;;;5087953;28;20060;-75
2024/01/20 06:47:25;;;;;;;0.20;0.20;;;;;;;;;;5073238;28;20028;-75
2024/01/20 06:49:53;;;;;;;0.20;0.20;;;;;;;;;;5082052;28;20042;-74
2024/01/20 06:52:19;;;;;;;0.10;0.10;;;;;;;;;;5071389;28;20024;-74
2024/01/20 06:54:45;;;;;;;0.10;0.10;;;;;;;;;;5071148;28;20797;-75
2024/01/20 06:57:11;;;;;;;0.17;0.17;;;;;;;;;;5053151;28;20082;-75
2024/01/20 06:59:37;;;;;;;0.10;0.10;;;;;;;;;;5071506;28;20476;-75
2024/01/20 07:02:03;;;;;;;0.10;0.10;;;;;;;;;;5071222;28;20060;-77
2024/01/20 07:04:29;;;;;;;0.10;0.10;;;;;;;;;;5071032;28;20029;-75
2024/01/20 07:06:54;;;;;;;0.20;0.20;;;;;;;;;;5052863;28;20455;-75
2024/01/20 07:09:20;;;;;;;0.10;0.10;;;;;;;;;;5070676;28;20116;-75
2024/01/20 07:11:45;;;;;;;0.10;0.10;;;;;;;;;;5071126;28;20064;-74
2024/01/20 07:14:11;;;;;;;0.10;0.10;;;;;;;;;;5070922;28;20032;-77
2024/01/20 07:16:37;;;;;;;0.10;0.10;;;;;;;;;;5071173;28;20612;-74
2024/01/20 07:19:02;;;;;;;0.15;0.15;;;;;;;;;;5053045;28;20032;-74
2024/01/20 07:21:28;;;;;;;0.10;0.10;;;;;;;;;;5070919;28;20100;-74
2024/01/20 07:23:53;;;;;;;0.10;0.10;;;;;;;;;;5070694;28;20024;-75
2024/01/20 07:26:19;;;;;;;5.63;0.90;;;;;;;;;;5052697;28;20086;-76
2024/01/20 07:28:45;;;;;;;0.20;0.20;;;;;;;;;;5070496;28;20040;-75
2024/01/20 07:31:11;;;;;;;0.20;0.20;;;;;;;;;;5071055;28;20124;-76
2024/01/20 07:33:38;;;;;;;0.10;0.10;;;;;;;;;;5070543;28;20059;-74
2024/01/20 07:36:05;;;;;;;0.10;0.10;;;;;;;;;;5084219;28;20048;-70
2024/01/20 07:38:31;;;;;;;0.28;0.28;;;;;;;;;;5090738;28;20738;-69
2024/01/20 07:40:59;;;;;;;0.25;0.20;;;;;;;;;;5090807;28;20036;-71
2024/01/20 07:43:24;;;;;;;0.38;0.30;;;;;;;;;;5091044;28;20027;-71
2024/01/20 07:45:54;;;;;;;0.10;0.10;;;;;;;;;;5090787;28;20032;-71
2024/01/20 07:48:22;;;;;;;0.20;0.20;;;;;;;;;;5090356;28;20032;-70
2024/01/20 07:50:48;;;;;;;0.20;0.20;;;;;;;;;;5090379;28;20387;-71
2024/01/20 07:53:14;;;;;;;0.20;0.20;;;;;;;;;;5072721;28;20039;-75
2024/01/20 07:55:40;;;;;;;0.20;0.20;;;;;;;;;;5090605;28;20027;-70
2024/01/20 07:58:05;;;;;;;0.20;0.20;;;;;;;;;;5090299;28;20024;-69
2024/01/20 08:00:31;;;;;;;0.15;0.15;;;;;;;;;;5088367;28;20039;-71
2024/01/20 08:02:56;;;;;;;0.32;0.32;;;;;;;;;;5090752;28;20026;-70
2024/01/20 08:05:22;;;;;;;0.20;0.20;;;;;;;;;;5069077;28;20035;-71
2024/01/20 08:07:47;;;;;;;0.20;0.20;;;;;;;;;;5073137;28;20498;-71
2024/01/20 08:10:13;;;;;;;0.10;0.10;;;;;;;;;;5085517;28;20099;-71
2024/01/20 08:12:38;;;;;;;0.10;0.10;;;;;;;;;;5082881;28;20058;-70
2024/01/20 08:15:04;;;;;;;0.30;0.30;;;;;;;;;;5066666;28;20468;-71
2024/01/20 08:17:30;;;;;;;0.20;0.20;;;;;;;;;;5067961;28;20028;-74
2024/01/20 08:19:56;;;;;;;0.90;0.88;;;;;;;;;;5068026;28;20032;-70
2024/01/20 08:22:22;;;;;;;0.20;0.20;;;;;;;;;;5071306;28;20426;-72
2024/01/20 08:24:47;;;;;;;0.17;0.17;;;;;;;;;;5075632;28;20028;-71
2024/01/20 08:27:13;;;;;;;0.20;0.20;;;;;;;;;;5068723;28;20233;-69
2024/01/20 08:29:38;;;;;;;0.17;0.17;;;;;;;;;;5071548;28;20085;-72
2024/01/20 08:32:04;;;;;;;0.20;0.20;;;;;;;;;;5067955;28;20024;-71
2024/01/20 08:34:30;;;;;;;0.17;0.17;;;;;;;;;;5067396;28;20392;-72
2024/01/20 08:36:55;;;;;;;0.20;0.20;;;;;;;;;;5081683;28;20055;-71
2024/01/20 08:39:21;;;;;;;0.10;0.10;;;;;;;;;;5085374;28;20020;-74
2024/01/20 08:41:47;;;;;;;0.15;0.15;;;;;;;;;;5089626;28;20066;-70
2024/01/20 08:44:13;;;;;;;0.15;0.15;;;;;;;;;;5087032;28;20040;-71
2024/01/20 08:46:39;;;;;;;0.30;0.30;;;;;;;;;;5090108;28;20117;-71
2024/01/20 08:49:05;;;;;;;0.10;0.10;;;;;;;;;;5089529;28;20066;-72
2024/01/20 08:51:30;;;;;;;0.10;0.10;;;;;;;;;;5089179;28;20024;-72
2024/01/20 08:53:57;;;;;;;0.20;0.20;;;;;;;;;;5088087;28;20391;-69
2024/01/20 08:56:23;;;;;;;0.10;0.10;;;;;;;;;;5087756;28;20029;-70
2024/01/20 08:58:48;;;;;;;0.20;0.20;;;;;;;;;;5089571;28;20024;-70
2024/01/20 09:01:15;;;;;;;0.20;0.20;;;;;;;;;;5089470;28;20028;-70
2024/01/20 09:03:40;;;;;;;0.10;0.10;;;;;;;;;;5080069;28;20188;-70
2024/01/20 09:06:06;;;;;;;0.17;0.17;;;;;;;;;;5085238;28;20035;-71
2024/01/20 09:08:31;;;;;;;0.10;0.10;;;;;;;;;;5077740;28;20035;-70
2024/01/20 09:10:58;;;;;;;0.10;0.10;;;;;;;;;;5069265;28;20500;-73
2024/01/20 09:13:23;;;;;;;0.20;0.20;;;;;;;;;;5076732;28;20499;-71
2024/01/20 09:15:49;;;;;;;0.10;0.10;;;;;;;;;;5088786;28;20055;-69
2024/01/20 09:18:17;;;;;;;0.10;0.10;;;;;;;;;;5088583;28;20541;-71
2024/01/20 09:20:42;;;;;;;0.10;0.10;;;;;;;;;;5079840;28;20035;-70
2024/01/20 09:23:08;;;;;;;0.10;0.10;;;;;;;;;;5069161;28;20107;-70
2024/01/20 09:25:34;;;;;;;0.10;0.10;;;;;;;;;;5050972;28;20059;-71
2024/01/20 09:28:00;;;;;;;2.13;0.20;;;;;;;;;;5069913;28;20016;-74
2024/01/20 09:30:26;;;;;;;0.20;0.20;;;;;;;;;;5052726;28;20040;-70
2024/01/20 09:32:51;;;;;;;0.10;0.10;;;;;;;;;;5077983;28;20043;-71
2024/01/20 09:35:17;;;;;;;0.10;0.10;;;;;;;;;;5083162;28;20083;-71
2024/01/20 09:37:42;;;;;;;0.10;0.10;;;;;;;;;;5073119;28;20047;-70
2024/01/20 09:40:08;;;;;;;0.13;0.13;;;;;;;;;;5081878;28;20058;-71
2024/01/20 09:42:34;;;;;;;0.10;0.10;;;;;;;;;;5074503;28;20403;-70
2024/01/20 09:45:00;;;;;;;0.15;0.15;;;;;;;;;;5070660;28;20027;-70
2024/01/20 09:47:25;;;;;;;0.38;0.13;;;;;;;;;;5089570;28;20032;-70
2024/01/20 09:49:51;;;;;;;0.10;0.10;;;;;;;;;;5089062;28;20433;-70
2024/01/20 09:52:21;;;;;;;0.10;0.10;;;;;;;;;;5088746;28;20028;-71
2024/01/20 09:55:05;;;;;;;0.10;0.10;;;;;;;;;;5089434;28;20035;-69
2024/01/20 09:57:31;;;;;;;0.10;0.10;;;;;;;;;;5088446;28;20471;-71
2024/01/20 09:59:58;;;;;;;0.10;0.10;;;;;;;;;;5079506;28;20094;-69
2024/01/20 10:02:25;;;;;;;0.10;0.10;;;;;;;;;;5087280;28;20042;-70
2024/01/20 10:04:51;;;;;;;0.10;0.10;;;;;;;;;;5074622;28;20035;-70
2024/01/20 10:07:29;;;;;;;0.10;0.10;;;;;;;;;;5088743;28;20376;-72
2024/01/20 10:09:56;;;;;;;0.10;0.10;;;;;;;;;;5073141;28;20028;-70
2024/01/20 10:12:24;;;;;;;0.10;0.10;;;;;;;;;;5072084;28;20380;-70
2024/01/20 10:14:50;;;;;;;0.10;0.10;;;;;;;;;;5054340;28;20028;-69
2024/01/20 10:17:16;;;;;;;0.10;0.10;;;;;;;;;;5080324;28;20104;-72
2024/01/20 10:19:42;;;;;;;0.10;0.10;;;;;;;;;;5067754;28;20472;-71
2024/01/20 10:22:08;;;;;;;0.10;0.10;;;;;;;;;;5072488;28;20048;-72
2024/01/20 10:24:33;;;;;;;0.10;0.10;;;;;;;;;;5072820;28;20118;-70
2024/01/20 10:27:00;;;;;;;0.10;0.10;;;;;;;;;;5072440;28;20171;-70
2024/01/20 10:29:26;;;;;;;0.10;0.10;;;;;;;;;;5071951;28;20029;-70
2024/01/20 10:31:51;;;;;;;0.60;0.40;;;;;;;;;;5076996;28;20031;-70
2024/01/20 10:34:17;;;;;;;0.10;0.10;;;;;;;;;;5090418;28;20032;-70
2024/01/20 10:36:44;;;;;;;0.10;0.10;;;;;;;;;;5092188;28;20036;-71
2024/01/20 10:39:13;;;;;;;0.10;0.10;;;;;;;;;;5092061;28;20085;-70
2024/01/20 10:41:40;;;;;;;0.28;0.28;;;;;;;;;;5072912;28;20032;-73
2024/01/20 10:44:06;;;;;;;0.10;0.10;;;;;;;;;;5073048;28;20063;-72
2024/01/20 10:46:34;;;;;;;0.10;0.10;;;;;;;;;;5090849;28;20035;-71
2024/01/20 10:49:03;;;;;;;0.10;0.10;;;;;;;;;;5091696;28;20032;-70
2024/01/20 10:51:29;;;;;;;0.10;0.10;;;;;;;;;;5091829;28;20028;-70
2024/01/20 10:53:56;;;;;;;0.10;0.10;;;;;;;;;;5073793;28;20031;-71
2024/01/20 10:56:22;;;;;;;0.10;0.10;;;;;;;;;;5091513;28;20430;-71
2024/01/20 10:58:54;;;;;;;0.10;0.10;;;;;;;;;;5092037;28;20020;-71
2024/01/20 11:01:20;;;;;;;0.10;0.10;;;;;;;;;;5073965;28;20036;-72
2024/01/20 11:03:46;;;;;;;0.10;0.10;;;;;;;;;;5091718;28;20395;-70
2024/01/20 11:06:21;;;;;;;0.10;0.10;;;;;;;;;;5088409;28;20055;-69
2024/01/20 11:08:51;;;;;;;0.10;0.10;;;;;;;;;;5072597;28;20475;-69
2024/01/20 11:11:20;;;;;;;0.35;0.35;;;;;;;;;;5072566;28;20450;-70
2024/01/20 11:13:48;;;;;;;0.10;0.10;;;;;;;;;;5090498;28;20016;-70
2024/01/20 11:16:17;;;;;;;0.10;0.10;;;;;;;;;;5087442;28;20027;-70
2024/01/20 11:18:45;;;;;;;0.10;0.10;;;;;;;;;;5086230;28;20095;-68
2024/01/20 11:21:13;;;;;;;0.45;0.45;;;;;;;;;;5088831;28;20016;-71
2024/01/20 11:23:39;;;;;;;0.10;0.10;;;;;;;;;;5088643;28;20039;-70
2024/01/20 11:26:11;;;;;;;0.10;0.10;;;;;;;;;;5090244;28;20024;-71
2024/01/20 11:28:40;;;;;;;0.10;0.10;;;;;;;;;;5073099;28;20027;-70
2024/01/20 11:31:16;;;;;;;0.10;0.10;;;;;;;;;;5071782;28;20036;-69
2024/01/20 11:33:42;;;;;;;0.10;0.10;;;;;;;;;;5087393;28;20036;-70
2024/01/20 11:36:07;;;;;;;0.20;0.20;;;;;;;;;;5088235;28;20108;-69
2024/01/20 11:38:34;;;;;;;0.10;0.10;;;;;;;;;;5088229;28;20028;-70
2024/01/20 11:41:00;;;;;;;0.10;0.10;;;;;;;;;;5089235;28;20060;-75
2024/01/20 11:43:26;;;;;;;0.10;0.10;;;;;;;;;;5090569;28;20035;-71
2024/01/20 11:45:52;;;;;;;0.10;0.10;;;;;;;;;;5090269;28;20115;-70
2024/01/20 11:48:21;;;;;;;0.20;0.20;;;;;;;;;;5071772;28;20020;-69
2024/01/20 11:50:47;;;;;;;14.85;2.88;;;;;;;;;;5089771;28;20471;-70
2024/01/20 11:53:14;;;;;;;1.35;0.65;;;;;;;;;;5089218;28;20085;-70
2024/01/20 11:55:39;;;;;;;0.10;0.10;;;;;;;;;;5089710;28;20016;-69
2024/01/20 11:58:05;;;;;;;1.20;0.88;;;;;;;;;;5071532;28;20433;-70
2024/01/20 12:00:30;;;;;;;0.17;0.17;;;;;;;;;;5089772;28;20020;-69
2024/01/20 12:02:56;;;;;;;1.63;0.88;;;;;;;;;;5089570;28;20487;-70
2024/01/20 12:05:22;;;;;;;0.10;0.10;;;;;;;;;;5089865;28;20024;-69
2024/01/20 12:07:47;;;;;;;0.10;0.10;;;;;;;;;;5089419;28;20020;-69
2024/01/20 12:10:16;;;;;;;0.10;0.10;;;;;;;;;;5089456;28;20107;-69
2024/01/20 12:12:42;;;;;;;2.25;1.20;;;;;;;;;;5090305;28;20024;-69
2024/01/20 12:15:09;;;;;;;0.10;0.10;;;;;;;;;;5088016;28;20024;-71
2024/01/20 12:17:35;;;;;;;1.88;0.85;;;;;;;;;;5049211;28;20108;-72
2024/01/20 12:20:01;;;;;;;1.80;0.75;;;;;;;;;;5067831;28;20104;-71
2024/01/20 12:22:26;;;;;;;0.82;0.40;;;;;;;;;;5067947;28;20025;-71
2024/01/20 12:24:54;;;;;;;0.22;0.17;;;;;;;;;;5067457;28;20033;-70
2024/01/20 12:27:19;;;;;;;0.10;0.10;;;;;;;;;;5067833;28;20401;-71
2024/01/20 12:29:45;;;;;;;0.10;0.10;;;;;;;;;;5067573;28;20035;-72
2024/01/20 12:32:11;;;;;;;0.30;0.30;;;;;;;;;;5083214;28;20031;-70
2024/01/20 12:34:36;;;;;;;0.45;0.45;;;;;;;;;;5078770;28;20103;-70
2024/01/20 12:37:02;;;;;;;0.13;0.13;;;;;;;;;;5089697;28;20040;-71
2024/01/20 12:39:28;;;;;;;1.33;0.47;;;;;;;;;;5089714;28;20074;-69
2024/01/20 12:41:54;;;;;;;0.20;0.20;;;;;;;;;;5081647;28;20099;-70
2024/01/20 12:44:20;;;;;;;1.00;0.60;;;;;;;;;;5087972;28;20028;-69
2024/01/20 12:46:46;;;;;;;0.10;0.10;;;;;;;;;;5089819;28;20024;-71
2024/01/20 12:49:12;;;;;;;0.10;0.10;;;;;;;;;;5071935;28;20390;-71
2024/01/20 12:51:38;;;;;;;0.30;0.30;;;;;;;;;;5089669;28;20034;-71
2024/01/20 12:54:03;;;;;;;0.10;0.10;;;;;;;;;;5088180;28;20032;-71
2024/01/20 12:56:29;;;;;;;0.57;0.40;;;;;;;;;;5087620;28;20579;-72
2024/01/20 12:58:56;;;;;;;0.30;0.25;;;;;;;;;;5070258;28;20455;-70
2024/01/20 13:01:23;;;;;;;0.10;0.10;;;;;;;;;;5089501;28;20487;-71
2024/01/20 13:03:50;;;;;;;0.20;0.20;;;;;;;;;;5088900;28;20050;-70
2024/01/20 13:06:16;;;;;;;0.15;0.15;;;;;;;;;;5088971;28;20032;-70
2024/01/20 13:08:42;;;;;;;0.30;0.20;;;;;;;;;;5086030;28;20500;-70
2024/01/20 13:11:07;;;;;;;0.20;0.20;;;;;;;;;;5082556;28;20021;-71
2024/01/20 13:13:33;;;;;;;0.17;0.17;;;;;;;;;;5082797;28;20071;-70
2024/01/20 13:15:58;;;;;;;0.30;0.30;;;;;;;;;;5080992;28;20031;-72
2024/01/20 13:18:24;;;;;;;1.98;1.10;;;;;;;;;;5079803;28;20067;-72
2024/01/20 13:20:49;;;;;;;0.40;0.20;;;;;;;;;;5078289;28;20032;-71
2024/01/20 13:23:16;;;;;;;0.57;0.38;;;;;;;;;;5067843;28;20081;-72
2024/01/20 13:25:41;;;;;;;0.20;0.20;;;;;;;;;;5081002;28;20471;-73
2024/01/20 13:28:07;;;;;;;1.10;0.57;;;;;;;;;;5085547;28;20032;-72
2024/01/20 13:30:32;;;;;;;0.32;0.32;;;;;;;;;;5086138;28;20382;-72
2024/01/20 13:32:58;;;;;;;0.85;0.57;;;;;;;;;;5085914;28;20051;-71
2024/01/20 13:35:24;;;;;;;1.80;0.40;;;;;;;;;;5086635;28;20036;-72
2024/01/20 13:37:49;;;;;;;0.28;0.15;;;;;;;;;;5089746;28;20028;-72
2024/01/20 13:40:15;;;;;;;1.27;0.52;;;;;;;;;;5090213;28;20032;-70
2024/01/20 13:42:41;;;;;;;0.28;0.28;;;;;;;;;;5090418;28;20031;-72
2024/01/20 13:45:07;;;;;;;1.65;0.45;;;;;;;;;;5089766;28;20047;-70
2024/01/20 13:47:33;;;;;;;0.20;0.20;;;;;;;;;;5090137;28;20036;-71
2024/01/20 13:49:59;;;;;;;0.30;0.30;;;;;;;;;;5090397;28;20111;-73
2024/01/20 13:52:25;;;;;;;0.10;0.10;;;;;;;;;;5090012;28;20103;-72
2024/01/20 13:54:50;;;;;;;1.52;0.57;;;;;;;;;;5090238;28;20020;-70
2024/01/20 13:57:16;;;;;;;1.40;0.40;;;;;;;;;;5089544;28;20486;-73
2024/01/20 13:59:41;;;;;;;0.30;0.30;;;;;;;;;;5090005;28;20027;-71
2024/01/20 14:02:07;;;;;;;1.88;0.90;;;;;;;;;;5072028;28;20036;-71
2024/01/20 14:04:33;;;;;;;0.10;0.10;;;;;;;;;;5090271;28;20073;-70
2024/01/20 14:07:03;;;;;;;0.25;0.20;;;;;;;;;;5089196;28;20124;-70
2024/01/20 14:09:30;;;;;;;0.45;0.40;;;;;;;;;;5051853;28;20037;-71
2024/01/20 14:11:56;;;;;;;0.10;0.10;;;;;;;;;;5068914;28;20111;-72
2024/01/20 14:14:23;;;;;;;2.17;0.45;;;;;;;;;;5051850;28;20028;-70
2024/01/20 14:16:54;;;;;;;0.95;0.25;;;;;;;;;;5068555;28;20083;-70
2024/01/20 14:19:20;;;;;;;0.95;0.60;;;;;;;;;;5068574;28;20539;-71
2024/01/20 14:21:46;;;;;;;0.40;0.32;;;;;;;;;;5068577;28;20475;-69
2024/01/20 14:24:12;;;;;;;0.88;0.40;;;;;;;;;;5068648;28;20032;-71
2024/01/20 14:26:39;;;;;;;0.30;0.30;;;;;;;;;;5068623;28;20059;-72
2024/01/20 14:29:08;;;;;;;0.50;0.50;;;;;;;;;;5070088;28;20029;-71
2024/01/20 14:31:44;;;;;;;0.90;0.43;;;;;;;;;;5070714;28;20031;-73
2024/01/20 14:34:10;;;;;;;0.20;0.20;;;;;;;;;;5070837;28;20100;-72
2024/01/20 14:36:36;;;;;;;0.20;0.20;;;;;;;;;;5051851;28;20142;-74